Terminal Aerodrome Forecast
Issued by NWS Paducah, KY

Home | Current Version | Previous Version | Text Only | Print | Product List | Glossary Off
Versions: 1 2 3 4 5 6 7 8 9 10 11 12 13 14 15

000
FTUS43 KPAH 250500
TAFPAH
TAF
KPAH 250520Z 2506/2606 VRB02KT P6SM SKC
     FM251500 17004KT P6SM SCT250
     FM260000 VRB03KT P6SM SCT150=

USA.gov is the U.S. government's official web portal to all federal, state and local government web resources and services.